createdAt,value
2018-05-29T00:01:55.475Z,18.12
2018-05-29T00:04:23.806Z,17.12
2018-05-29T00:06:52.174Z,18.65
2018-05-29T00:09:20.556Z,18.10
2018-05-29T00:11:48.974Z,18.33
2018-05-29T00:14:18.035Z,18.62
2018-05-29T00:16:46.362Z,17.15
2018-05-29T00:19:14.770Z,18.25
2018-05-29T00:21:43.103Z,17.95
2018-05-29T00:24:12.233Z,17.25
2018-05-29T00:26:40.571Z,17.10
2018-05-29T00:29:08.926Z,21.85
2018-05-29T00:31:37.252Z,18.62
2018-05-29T00:34:05.561Z,19.23
2018-05-29T00:36:33.923Z,22.98
2018-05-29T00:39:02.279Z,18.48
2018-05-29T00:41:30.632Z,18.25
2018-05-29T00:43:59.767Z,17.95
2018-05-29T00:46:28.059Z,18.52
2018-05-29T00:48:57.157Z,18.33
2018-05-29T00:51:25.551Z,18.85
2018-05-29T00:53:53.924Z,18.10
2018-05-29T00:56:22.317Z,19.23
2018-05-29T00:58:50.658Z,19.50
2018-05-29T01:01:19.074Z,18.87
2018-05-29T01:03:47.453Z,18.85
2018-05-29T01:06:15.814Z,22.50
2018-05-29T01:08:44.229Z,19.95
2018-05-29T01:11:12.571Z,20.83
2018-05-29T01:13:41.002Z,21.25
2018-05-29T01:16:10.134Z,21.60
2018-05-29T01:18:38.476Z,19.23
2018-05-29T01:21:07.610Z,19.70
2018-05-29T01:23:35.917Z,20.83
2018-05-29T01:26:04.282Z,19.25
2018-05-29T01:28:32.634Z,18.55
2018-05-29T01:31:01.063Z,18.65
2018-05-29T01:33:29.442Z,20.37
2018-05-29T01:35:57.845Z,19.30
2018-05-29T01:38:27.001Z,20.73
2018-05-29T01:40:55.412Z,20.33
2018-05-29T01:43:23.807Z,22.63
2018-05-29T01:45:52.997Z,22.07
2018-05-29T01:48:21.356Z,21.37
2018-05-29T01:50:49.769Z,21.47
2018-05-29T01:53:18.110Z,21.58
2018-05-29T01:55:46.484Z,21.45
2018-05-29T01:58:14.870Z,21.50
2018-05-29T02:00:43.230Z,21.15
2018-05-29T02:03:11.625Z,20.77
2018-05-29T02:05:40.011Z,21.30
2018-05-29T02:08:08.345Z,21.75
2018-05-29T02:10:36.743Z,21.67
2018-05-29T02:13:05.200Z,22.33
2018-05-29T02:15:33.614Z,21.13
2018-05-29T02:18:01.962Z,20.83
2018-05-29T02:20:30.354Z,21.30
2018-05-29T02:22:58.731Z,20.92
2018-05-29T02:25:27.135Z,20.67
2018-05-29T02:27:55.477Z,21.03
2018-05-29T02:30:23.895Z,21.43
2018-05-29T02:32:52.291Z,22.10
2018-05-29T02:35:20.728Z,22.17
2018-05-29T02:37:49.058Z,21.97
2018-05-29T02:40:18.137Z,21.47
2018-05-29T02:42:46.517Z,21.75
2018-05-29T02:45:14.954Z,23.90
2018-05-29T02:47:43.356Z,25.13
2018-05-29T02:50:11.696Z,22.77
2018-05-29T02:52:40.150Z,24.40
2018-05-29T02:55:09.298Z,23.33
2018-05-29T02:57:37.580Z,23.83
2018-05-29T03:00:05.882Z,24.13
2018-05-29T03:02:34.208Z,24.60
2018-05-29T03:05:02.544Z,23.37
2018-05-29T03:07:30.818Z,23.67
2018-05-29T03:09:59.127Z,23.50
2018-05-29T03:12:28.123Z,22.07
2018-05-29T03:14:57.143Z,26.30
2018-05-29T03:17:25.414Z,27.03
2018-05-29T03:19:53.699Z,25.53
2018-05-29T03:22:21.983Z,24.53
2018-05-29T03:24:50.260Z,23.47
2018-05-29T03:27:18.522Z,24.20
2018-05-29T03:29:46.796Z,24.37
2018-05-29T03:32:15.060Z,24.67
2018-05-29T03:34:43.318Z,23.57
2018-05-29T03:37:12.354Z,24.23
2018-05-29T03:39:40.625Z,24.97
2018-05-29T03:42:08.877Z,23.33
2018-05-29T03:44:37.914Z,24.73
2018-05-29T03:47:06.178Z,24.30
2018-05-29T03:49:34.443Z,22.90
2018-05-29T03:52:02.718Z,24.17
2018-05-29T03:54:31.001Z,24.27
2018-05-29T03:56:59.281Z,24.43
2018-05-29T03:59:27.549Z,23.47
2018-05-29T04:01:57.271Z,26.10
2018-05-29T04:04:25.658Z,23.87
2018-05-29T04:06:53.958Z,23.93
2018-05-29T04:09:22.248Z,24.67
2018-05-29T04:11:51.427Z,23.57
2018-05-29T04:14:19.713Z,24.80
2018-05-29T04:16:48.076Z,25.33
2018-05-29T04:19:16.383Z,26.00
2018-05-29T04:21:44.642Z,24.20
2018-05-29T04:24:12.924Z,25.37
2018-05-29T04:26:41.178Z,26.17
2018-05-29T04:29:09.459Z,25.40
2018-05-29T04:31:37.822Z,26.27
2018-05-29T04:37:15.417Z,27.97
2018-05-29T04:55:23.564Z,27.30
2018-05-29T04:57:55.085Z,26.63
2018-05-29T05:27:38.891Z,28.80
2018-05-29T05:30:09.203Z,26.30
2018-05-29T05:35:53.530Z,26.30
2018-05-29T05:38:34.795Z,25.27
2018-05-29T12:31:04.535Z,8.70
2018-05-29T12:33:33.790Z,8.75
2018-05-29T12:36:02.254Z,9.13
2018-05-29T12:38:41.037Z,8.40
2018-05-29T12:56:00.199Z,9.85
2018-05-29T12:58:28.815Z,8.15
2018-05-29T13:43:31.329Z,8.52
2018-05-29T13:46:01.753Z,9.27
2018-05-29T13:51:35.746Z,9.20
2018-05-29T14:15:21.419Z,10.32
2018-05-29T14:17:49.746Z,12.15
2018-05-29T14:20:40.659Z,11.00
2018-05-29T14:23:09.716Z,9.95
2018-05-29T14:28:46.731Z,11.05
2018-05-29T14:31:15.060Z,11.98
2018-05-29T14:42:51.266Z,11.68
2018-05-29T14:45:20.362Z,11.25
2018-05-29T14:48:28.784Z,11.48
2018-05-29T15:03:20.770Z,13.57
2018-05-29T15:08:58.337Z,11.32
2018-05-29T15:14:50.615Z,10.98
2018-05-29T15:17:18.917Z,13.43
2018-05-29T15:19:47.224Z,11.80
2018-05-29T15:22:16.278Z,13.52
2018-05-29T15:24:44.531Z,10.70
2018-05-29T15:27:12.829Z,11.85
2018-05-29T15:29:41.113Z,13.15
2018-05-29T15:32:09.423Z,10.70
2018-05-29T15:34:38.599Z,11.43
2018-05-29T15:37:07.746Z,13.20
2018-05-29T15:39:36.882Z,9.25
2018-05-29T15:42:05.297Z,9.18
2018-05-29T15:44:34.329Z,9.32
2018-05-29T15:47:02.609Z,11.43
2018-05-29T15:49:39.318Z,12.30
2018-05-29T15:52:07.704Z,11.57
2018-05-29T15:54:59.983Z,10.52
2018-05-29T15:57:46.493Z,8.98
2018-05-29T16:00:16.606Z,12.32
2018-05-29T16:05:42.911Z,8.48
2018-05-29T16:08:11.219Z,8.95
2018-05-29T16:10:53.070Z,9.85
2018-05-29T16:13:21.339Z,9.73
2018-05-29T16:15:49.669Z,11.40
2018-05-29T16:18:18.004Z,9.25
2018-05-29T16:20:46.326Z,7.78
2018-05-29T16:23:15.403Z,9.65
2018-05-29T16:25:45.500Z,9.43
2018-05-29T16:28:13.869Z,7.87
2018-05-29T16:30:42.221Z,10.43
2018-05-29T16:33:10.595Z,8.10
2018-05-29T16:35:38.905Z,9.05
2018-05-29T16:38:07.295Z,9.60
2018-05-29T16:40:35.619Z,9.52
2018-05-29T16:43:03.972Z,8.00
2018-05-29T16:45:33.103Z,8.85
2018-05-29T16:48:01.483Z,8.30
2018-05-29T16:50:30.530Z,9.85
2018-05-29T16:52:58.931Z,11.27
2018-05-29T16:58:42.335Z,9.93
2018-05-29T17:21:34.279Z,8.80
2018-05-29T17:24:02.664Z,9.95
2018-05-29T17:26:31.007Z,8.95
2018-05-29T17:29:11.110Z,9.93
2018-05-29T17:31:44.228Z,8.95
2018-05-29T17:39:57.960Z,7.80
2018-05-29T17:42:38.722Z,8.35
2018-05-29T17:45:07.139Z,9.35
2018-05-29T17:47:35.494Z,10.23
2018-05-29T17:50:03.835Z,9.20
2018-05-29T17:52:32.934Z,9.88
2018-05-29T17:55:02.014Z,11.05
2018-05-29T17:57:30.394Z,9.60
2018-05-29T17:59:58.719Z,8.68
2018-05-29T18:02:27.022Z,8.95
2018-05-29T18:04:55.296Z,8.98
2018-05-29T18:07:23.689Z,8.73
2018-05-29T18:09:52.031Z,8.93
2018-05-29T18:12:20.320Z,8.65
2018-05-29T18:14:48.616Z,9.40
2018-05-29T18:17:16.930Z,10.75
2018-05-29T18:19:45.984Z,10.30
2018-05-29T18:22:14.674Z,11.07
2018-05-29T18:24:43.753Z,9.93
2018-05-29T18:27:12.035Z,9.15
2018-05-29T18:29:40.299Z,10.48
2018-05-29T18:32:08.635Z,10.02
2018-05-29T18:34:37.679Z,8.32
2018-05-29T18:37:06.039Z,10.02
2018-05-29T18:39:34.306Z,9.43
2018-05-29T18:42:02.577Z,9.25
2018-05-29T18:44:30.932Z,9.60
2018-05-29T18:46:59.209Z,10.70
2018-05-29T18:49:27.485Z,10.50
2018-05-29T18:51:55.782Z,10.52
2018-05-29T18:54:25.184Z,10.32
2018-05-29T18:56:54.239Z,8.38
2018-05-29T18:59:22.501Z,9.32
2018-05-29T19:01:50.824Z,8.73
2018-05-29T19:04:19.936Z,8.52
2018-05-29T19:06:49.055Z,9.60
2018-05-29T19:09:18.813Z,11.20
2018-05-29T19:11:47.096Z,9.82
2018-05-29T19:14:15.483Z,9.10
2018-05-29T19:16:44.227Z,10.82
2018-05-29T19:19:12.631Z,9.45
2018-05-29T19:21:40.898Z,11.02
2018-05-29T19:24:09.232Z,9.88
2018-05-29T19:26:37.535Z,14.50
2018-05-29T19:29:06.594Z,10.02
2018-05-29T19:31:35.686Z,12.00
2018-05-29T19:34:04.759Z,11.07
2018-05-29T19:36:33.044Z,12.20
2018-05-29T19:39:01.523Z,12.57
2018-05-29T19:44:05.083Z,10.02
2018-05-29T19:46:33.432Z,12.40
2018-05-29T19:49:01.798Z,10.23
2018-05-29T19:51:31.058Z,10.52
2018-05-29T19:53:59.945Z,10.75
2018-05-29T19:56:28.341Z,12.15
2018-05-29T19:58:56.673Z,10.75
2018-05-29T20:01:25.119Z,14.10
2018-05-29T20:03:53.475Z,10.88
2018-05-29T20:06:21.834Z,11.63
2018-05-29T20:08:50.219Z,11.65
2018-05-29T20:11:18.770Z,12.10
2018-05-29T20:13:47.103Z,12.10
2018-05-29T20:16:15.447Z,10.32
2018-05-29T20:18:43.864Z,11.15
2018-05-29T20:21:12.259Z,10.40
2018-05-29T20:23:40.662Z,10.75
2018-05-29T20:26:09.006Z,13.77
2018-05-29T20:28:37.463Z,13.07
2018-05-29T20:31:05.883Z,10.95
2018-05-29T20:33:34.242Z,12.15
2018-05-29T20:36:02.687Z,10.10
2018-05-29T20:38:31.217Z,11.75
2018-05-29T20:41:00.433Z,13.57
2018-05-29T20:43:28.899Z,12.82
2018-05-29T20:45:57.278Z,11.63
2018-05-29T20:48:25.667Z,11.52
2018-05-29T20:50:55.021Z,11.45
2018-05-29T20:53:23.440Z,13.52
2018-05-29T20:55:51.963Z,13.07
2018-05-29T20:58:20.410Z,18.15
2018-05-29T21:00:48.769Z,12.90
2018-05-29T21:03:17.121Z,14.73
2018-05-29T21:05:45.524Z,17.00
2018-05-29T21:08:13.934Z,16.83
2018-05-29T21:10:42.269Z,14.45
2018-05-29T21:13:10.660Z,17.05
2018-05-29T21:15:38.988Z,15.90
2018-05-29T21:18:07.403Z,16.52
2018-05-29T21:20:35.767Z,19.30
2018-05-29T21:23:04.145Z,17.62
2018-05-29T21:25:32.543Z,19.27
2018-05-29T21:28:00.914Z,18.15
2018-05-29T21:30:29.330Z,17.60
2018-05-29T21:32:58.474Z,17.25
2018-05-29T21:35:27.340Z,17.27
2018-05-29T21:37:56.436Z,17.42
2018-05-29T21:40:25.589Z,18.27
2018-05-29T21:42:53.986Z,19.60
2018-05-29T21:45:22.345Z,16.90
2018-05-29T21:47:50.745Z,20.98
2018-05-29T21:50:19.130Z,19.25
2018-05-29T21:52:47.618Z,16.92
2018-05-29T21:55:16.787Z,18.75
2018-05-29T21:57:45.167Z,21.05
2018-05-29T22:00:13.579Z,18.95
2018-05-29T22:02:42.744Z,19.60
2018-05-29T22:05:11.097Z,20.08
2018-05-29T22:07:39.481Z,20.50
2018-05-29T22:10:07.945Z,20.48
2018-05-29T22:12:36.310Z,19.95
2018-05-29T22:15:04.701Z,22.08
2018-05-29T22:17:33.061Z,19.62
2018-05-29T22:20:01.419Z,22.67
2018-05-29T22:22:29.923Z,21.02
2018-05-29T22:24:59.043Z,22.23
2018-05-29T22:27:27.476Z,20.17
2018-05-29T22:29:55.809Z,20.73
2018-05-29T22:32:24.195Z,22.23
2018-05-29T22:34:52.683Z,22.17
2018-05-29T22:37:21.140Z,23.40
2018-05-29T22:39:49.536Z,24.50
2018-05-29T22:42:17.907Z,22.42
2018-05-29T22:44:46.318Z,22.60
2018-05-29T22:47:14.686Z,23.10
2018-05-29T22:49:43.083Z,21.40
2018-05-29T22:52:11.467Z,21.08
2018-05-29T22:54:39.911Z,21.42
2018-05-29T22:57:08.395Z,21.65
2018-05-29T22:59:36.852Z,21.80
2018-05-29T23:02:05.252Z,21.93
2018-05-29T23:04:33.682Z,22.85
2018-05-29T23:07:02.113Z,24.67
2018-05-29T23:09:30.522Z,25.37
2018-05-29T23:11:58.864Z,26.75
2018-05-29T23:14:27.222Z,23.93
2018-05-29T23:16:56.426Z,24.70
2018-05-29T23:19:24.810Z,24.47
2018-05-29T23:21:53.930Z,24.87
2018-05-29T23:24:22.373Z,26.37
2018-05-29T23:26:51.544Z,28.90
2018-05-29T23:29:20.018Z,28.63
2018-05-29T23:31:48.382Z,31.93
2018-05-29T23:34:16.793Z,30.87
2018-05-29T23:36:45.205Z,28.00
2018-05-29T23:39:14.284Z,27.77
2018-05-29T23:41:42.693Z,30.30
2018-05-29T23:44:11.150Z,31.13
2018-05-29T23:46:40.308Z,30.53
2018-05-29T23:49:08.683Z,29.77
2018-05-29T23:51:37.078Z,29.90
2018-05-29T23:54:05.468Z,30.00
2018-05-29T23:56:33.862Z,30.40
2018-05-29T23:59:02.242Z,29.53
